createdAt,value
2018-06-20T00:00:43.169Z,7.10
2018-06-20T00:03:11.459Z,5.33
2018-06-20T00:05:39.619Z,5.13
2018-06-20T00:08:07.833Z,5.00
2018-06-20T00:10:36.068Z,5.30
2018-06-20T00:13:04.288Z,6.10
2018-06-20T00:15:32.440Z,5.57
2018-06-20T00:18:00.618Z,6.20
2018-06-20T00:20:28.786Z,5.67
2018-06-20T00:22:57.300Z,6.13
2018-06-20T00:25:25.473Z,5.83
2018-06-20T00:27:53.712Z,5.40
2018-06-20T00:30:22.089Z,5.47
2018-06-20T00:32:50.291Z,6.60
2018-06-20T00:35:18.555Z,8.30
2018-06-20T00:37:47.469Z,7.00
2018-06-20T00:40:15.620Z,7.33
2018-06-20T00:42:43.799Z,5.80
2018-06-20T00:45:12.084Z,7.07
2018-06-20T00:47:40.344Z,6.17
2018-06-20T00:50:08.487Z,6.13
2018-06-20T00:52:36.633Z,6.60
2018-06-20T00:55:04.801Z,6.27
2018-06-20T00:57:33.073Z,6.20
2018-06-20T01:00:01.236Z,7.10
2018-06-20T01:02:29.616Z,7.20
2018-06-20T01:04:57.899Z,6.83
2018-06-20T01:07:26.256Z,6.40
2018-06-20T01:09:54.542Z,5.77
2018-06-20T01:12:22.781Z,6.77
2018-06-20T01:14:50.941Z,6.03
2018-06-20T01:17:19.098Z,5.73
2018-06-20T01:19:47.355Z,7.20
2018-06-20T01:22:15.552Z,6.60
2018-06-20T01:24:43.935Z,6.00
2018-06-20T01:27:12.314Z,6.37
2018-06-20T01:29:40.454Z,6.53
2018-06-20T01:32:08.733Z,5.93
2018-06-20T01:34:36.911Z,5.93
2018-06-20T01:37:05.424Z,5.53
2018-06-20T01:39:33.991Z,6.07
2018-06-20T01:42:02.351Z,6.20
2018-06-20T01:44:30.645Z,5.30
2018-06-20T01:46:58.800Z,5.87
2018-06-20T01:49:27.004Z,6.00
2018-06-20T01:51:55.156Z,6.10
2018-06-20T01:54:23.501Z,6.43
2018-06-20T01:56:51.727Z,5.70
2018-06-20T01:59:19.991Z,6.10
2018-06-20T02:01:48.149Z,7.00
2018-06-20T02:04:16.331Z,6.60
2018-06-20T02:06:44.634Z,6.70
2018-06-20T02:09:12.803Z,6.93
2018-06-20T02:11:41.007Z,6.37
2018-06-20T02:14:09.287Z,5.60
2018-06-20T02:16:37.413Z,7.23
2018-06-20T02:19:05.607Z,6.53
2018-06-20T02:21:33.794Z,6.03
2018-06-20T02:24:02.164Z,6.03
2018-06-20T02:26:30.710Z,6.73
2018-06-20T02:28:58.863Z,6.10
2018-06-20T02:31:27.048Z,6.50
2018-06-20T02:33:55.251Z,6.43
2018-06-20T02:36:29.072Z,6.00
2018-06-20T02:38:57.267Z,5.87
2018-06-20T02:41:25.428Z,6.07
2018-06-20T02:43:53.696Z,5.93
2018-06-20T02:46:21.987Z,5.73
2018-06-20T02:48:50.140Z,6.27
2018-06-20T02:51:18.362Z,7.47
2018-06-20T02:53:46.659Z,6.63
2018-06-20T02:56:14.993Z,6.10
2018-06-20T02:58:43.180Z,6.93
2018-06-20T03:01:11.583Z,6.43
2018-06-20T03:03:40.050Z,7.40
2018-06-20T03:06:08.297Z,6.63
2018-06-20T03:08:36.488Z,6.37
2018-06-20T03:11:05.056Z,7.70
2018-06-20T03:13:33.251Z,8.97
2018-06-20T03:16:01.431Z,6.60
2018-06-20T03:18:29.611Z,6.30
2018-06-20T03:20:57.961Z,7.83
2018-06-20T03:23:26.370Z,5.80
2018-06-20T03:25:55.040Z,6.23
2018-06-20T03:28:23.317Z,5.37
2018-06-20T03:30:51.483Z,6.47
2018-06-20T03:33:19.649Z,6.63
2018-06-20T03:35:47.772Z,5.90
2018-06-20T03:38:16.133Z,8.27
2018-06-20T03:40:44.301Z,5.90
2018-06-20T03:43:12.496Z,7.33
2018-06-20T03:45:40.843Z,6.40
2018-06-20T03:48:09.055Z,6.10
2018-06-20T03:50:37.508Z,6.07
2018-06-20T03:53:05.776Z,6.20
2018-06-20T03:55:34.104Z,6.60
2018-06-20T03:58:02.333Z,6.40
2018-06-20T04:00:30.539Z,6.60
2018-06-20T04:02:58.690Z,6.43
2018-06-20T04:05:29.739Z,5.97
2018-06-20T04:07:58.332Z,9.60
2018-06-20T04:10:27.128Z,6.40
2018-06-20T04:12:55.488Z,7.20
2018-06-20T04:15:23.687Z,6.30
2018-06-20T04:17:51.826Z,5.90
2018-06-20T04:20:20.034Z,6.33
2018-06-20T04:22:48.187Z,6.80
2018-06-20T04:25:16.386Z,6.90
2018-06-20T04:27:44.542Z,6.93
2018-06-20T04:30:12.876Z,6.40
2018-06-20T04:32:41.417Z,6.97
2018-06-20T04:35:09.773Z,6.50
2018-06-20T04:37:38.056Z,7.50
2018-06-20T04:40:06.448Z,6.00
2018-06-20T04:42:34.836Z,5.70
2018-06-20T04:45:03.313Z,6.33
2018-06-20T04:47:31.692Z,6.77
2018-06-20T04:49:59.847Z,5.87
2018-06-20T04:52:28.044Z,5.83
2018-06-20T04:54:56.223Z,6.60
2018-06-20T04:57:24.504Z,7.20
2018-06-20T04:59:52.859Z,11.57
2018-06-20T05:02:21.039Z,5.83
2018-06-20T05:04:49.407Z,8.67
2018-06-20T05:07:17.647Z,6.63
2018-06-20T05:09:46.001Z,8.23
2018-06-20T05:12:14.193Z,7.20
2018-06-20T05:14:42.511Z,8.17
2018-06-20T05:17:10.812Z,7.63
2018-06-20T05:19:39.005Z,8.53
2018-06-20T05:22:07.383Z,8.43
2018-06-20T05:24:35.636Z,8.23
2018-06-20T05:27:04.344Z,7.77
2018-06-20T05:29:32.700Z,8.47
2018-06-20T05:32:01.003Z,9.13
2018-06-20T05:34:29.151Z,7.70
2018-06-20T05:36:57.345Z,8.20
2018-06-20T05:39:25.732Z,7.90
2018-06-20T05:41:53.901Z,7.83
2018-06-20T05:44:22.088Z,9.30
2018-06-20T05:46:50.299Z,8.63
2018-06-20T05:49:18.544Z,8.17
2018-06-20T05:51:46.740Z,7.30
2018-06-20T05:54:14.904Z,9.17
2018-06-20T05:56:43.432Z,8.93
2018-06-20T05:59:11.825Z,8.17
2018-06-20T06:01:39.966Z,7.50
2018-06-20T06:04:08.127Z,7.60
2018-06-20T06:06:36.289Z,7.80
2018-06-20T06:09:06.221Z,8.60
2018-06-20T06:11:34.407Z,8.47
2018-06-20T06:14:02.987Z,7.50
2018-06-20T06:16:31.426Z,8.00
2018-06-20T06:18:59.645Z,7.33
2018-06-20T06:21:27.966Z,7.90
2018-06-20T06:23:56.136Z,6.57
2018-06-20T06:26:24.548Z,8.73
2018-06-20T06:28:52.911Z,6.57
2018-06-20T06:31:21.203Z,7.00
2018-06-20T06:33:49.352Z,7.57
2018-06-20T06:36:17.651Z,7.23
2018-06-20T06:38:45.936Z,6.70
2018-06-20T06:41:14.307Z,7.63
2018-06-20T06:43:42.569Z,7.37
2018-06-20T06:46:10.790Z,7.43
2018-06-20T06:48:39.024Z,11.60
2018-06-20T06:51:07.207Z,7.20
2018-06-20T06:53:35.430Z,7.17
2018-06-20T06:56:03.769Z,6.87
2018-06-20T06:58:32.448Z,6.70
2018-06-20T07:01:00.705Z,7.50
2018-06-20T07:03:28.976Z,8.93
2018-06-20T07:05:57.149Z,7.00
2018-06-20T07:08:25.402Z,7.33
2018-06-20T07:10:53.523Z,6.90
2018-06-20T07:13:21.727Z,7.33
2018-06-20T07:15:50.035Z,7.70
2018-06-20T07:18:18.588Z,7.20
2018-06-20T07:20:46.772Z,7.03
2018-06-20T07:23:14.919Z,7.73
2018-06-20T07:25:43.584Z,6.67
2018-06-20T07:28:11.845Z,7.27
2018-06-20T07:30:40.073Z,7.10
2018-06-20T07:33:08.423Z,6.97
2018-06-20T07:35:36.783Z,6.30
2018-06-20T07:38:04.991Z,5.77
2018-06-20T07:40:33.259Z,6.33
2018-06-20T07:43:01.449Z,6.43
2018-06-20T07:45:29.607Z,6.80
2018-06-20T07:47:57.825Z,5.60
2018-06-20T07:50:26.179Z,4.93
2018-06-20T07:52:54.357Z,4.63
2018-06-20T07:55:22.575Z,4.60
2018-06-20T07:57:51.015Z,5.20
2018-06-20T08:00:25.140Z,5.57
2018-06-20T08:03:04.280Z,4.83
2018-06-20T08:05:38.231Z,5.80
2018-06-20T08:08:11.793Z,6.07
2018-06-20T08:10:45.374Z,7.40
2018-06-20T08:13:19.025Z,6.33
2018-06-20T08:15:52.588Z,5.20
2018-06-20T08:18:26.212Z,9.00
2018-06-20T08:20:54.651Z,5.03
2018-06-20T08:23:22.873Z,6.07
2018-06-20T08:25:51.087Z,5.10
2018-06-20T08:28:19.636Z,7.33
2018-06-20T08:30:47.760Z,7.97
2018-06-20T08:33:16.072Z,4.40
2018-06-20T08:35:44.191Z,4.40
2018-06-20T08:38:12.524Z,5.13
2018-06-20T08:40:40.767Z,4.80
2018-06-20T08:43:09.192Z,4.40
2018-06-20T08:45:37.427Z,4.10
2018-06-20T08:48:05.712Z,6.23
2018-06-20T08:50:34.160Z,4.00
2018-06-20T08:53:02.376Z,3.90
2018-06-20T08:55:30.868Z,3.90
2018-06-20T08:57:59.164Z,4.13
2018-06-20T09:00:32.863Z,7.27
2018-06-20T09:03:01.151Z,5.23
2018-06-20T09:05:34.848Z,4.57
2018-06-20T09:08:08.685Z,4.30
2018-06-20T09:10:42.630Z,3.90
2018-06-20T09:13:16.344Z,3.70
2018-06-20T09:15:49.855Z,3.10
2018-06-20T09:18:23.644Z,3.53
2018-06-20T09:20:51.921Z,3.47
2018-06-20T09:23:20.080Z,4.70
2018-06-20T09:25:48.228Z,3.40
2018-06-20T09:28:16.550Z,3.90
2018-06-20T09:30:44.807Z,6.50
2018-06-20T09:33:12.939Z,2.97
2018-06-20T09:35:41.120Z,3.20
2018-06-20T09:38:09.953Z,3.10
2018-06-20T09:40:38.181Z,3.27
2018-06-20T09:43:06.731Z,2.63
2018-06-20T09:45:34.896Z,3.50
2018-06-20T09:48:03.176Z,3.00
2018-06-20T09:50:36.921Z,2.93
2018-06-20T09:53:05.079Z,3.33
2018-06-20T09:55:33.333Z,2.80
2018-06-20T09:58:01.650Z,2.47
2018-06-20T10:00:35.226Z,3.20
2018-06-20T10:03:09.140Z,3.00
2018-06-20T10:05:43.029Z,3.20
2018-06-20T10:08:16.561Z,2.40
2018-06-20T10:10:47.640Z,2.63
2018-06-20T10:13:18.388Z,2.60
2018-06-20T10:15:46.731Z,2.43
2018-06-20T10:18:15.008Z,4.23
2018-06-20T10:20:43.251Z,2.97
2018-06-20T10:23:11.794Z,2.50
2018-06-20T10:25:39.937Z,2.63
2018-06-20T10:28:08.206Z,2.47
2018-06-20T10:30:36.379Z,3.27
2018-06-20T10:33:04.843Z,2.53
2018-06-20T10:35:33.060Z,3.60
2018-06-20T10:38:01.203Z,4.77
2018-06-20T10:40:29.392Z,2.80
2018-06-20T10:42:57.583Z,2.60
2018-06-20T10:45:31.188Z,3.53
2018-06-20T10:47:59.475Z,2.83
2018-06-20T10:50:27.671Z,2.43
2018-06-20T10:52:56.085Z,2.87
2018-06-20T10:55:24.318Z,3.20
2018-06-20T10:57:58.014Z,2.97
2018-06-20T11:00:31.515Z,2.70
2018-06-20T11:03:05.070Z,3.40
2018-06-20T11:06:40.589Z,3.40
2018-06-20T11:10:14.113Z,2.80
2018-06-20T11:13:15.743Z,2.90
2018-06-20T11:15:45.012Z,2.80
2018-06-20T11:18:13.461Z,2.80
2018-06-20T11:20:47.077Z,2.93
2018-06-20T11:23:15.375Z,2.83
2018-06-20T11:25:43.953Z,2.93
2018-06-20T11:28:13.467Z,2.40
2018-06-20T11:30:43.393Z,3.73
2018-06-20T11:33:11.567Z,2.50
2018-06-20T11:35:40.016Z,2.30
2018-06-20T11:38:08.412Z,2.77
2018-06-20T11:40:36.568Z,2.20
2018-06-20T11:43:05.317Z,2.23
2018-06-20T11:45:38.900Z,2.90
2018-06-20T11:48:07.829Z,2.60
2018-06-20T11:50:36.153Z,2.70
2018-06-20T11:53:05.845Z,2.33
2018-06-20T11:55:41.513Z,2.30
2018-06-20T11:58:15.246Z,2.43
2018-06-20T12:00:49.286Z,4.30
2018-06-20T12:03:23.022Z,3.07
2018-06-20T12:05:56.813Z,2.70
2018-06-20T12:08:30.226Z,2.23
2018-06-20T12:11:03.881Z,2.40
2018-06-20T12:13:37.670Z,2.60
2018-06-20T12:16:11.302Z,2.43
2018-06-20T12:18:45.042Z,2.50
2018-06-20T12:21:18.662Z,4.30
2018-06-20T12:23:52.449Z,3.23
2018-06-20T12:26:26.244Z,2.50
2018-06-20T12:29:00.373Z,3.07
2018-06-20T12:31:34.388Z,4.07
2018-06-20T12:34:08.107Z,3.13
2018-06-20T12:36:41.882Z,2.47
2018-06-20T12:39:09.453Z,3.73
2018-06-20T12:41:43.648Z,3.83
2018-06-20T12:44:17.235Z,2.50
2018-06-20T12:46:58.595Z,2.50
2018-06-20T12:49:30.119Z,3.47
2018-06-20T12:51:58.416Z,2.60
2018-06-20T12:54:26.656Z,2.10
2018-06-20T12:56:54.872Z,2.43
2018-06-20T12:59:24.835Z,3.10
2018-06-20T13:01:53.196Z,2.20
2018-06-20T13:04:21.372Z,2.30
2018-06-20T13:06:49.636Z,2.67
2018-06-20T13:09:17.776Z,2.70
2018-06-20T13:11:45.959Z,5.10
2018-06-20T13:14:14.267Z,2.90
2018-06-20T13:16:42.952Z,4.53
2018-06-20T13:19:11.116Z,2.77
2018-06-20T13:21:39.263Z,2.77
2018-06-20T13:24:07.789Z,2.77
2018-06-20T13:26:36.012Z,2.80
2018-06-20T13:29:04.299Z,3.30
2018-06-20T13:31:37.736Z,5.03
2018-06-20T13:34:11.142Z,4.37
2018-06-20T13:36:44.651Z,3.53
2018-06-20T13:39:18.116Z,3.73
2018-06-20T13:41:51.580Z,2.50
2018-06-20T13:44:22.977Z,2.93
2018-06-20T13:46:56.440Z,2.60
2018-06-20T13:49:24.592Z,3.33
2018-06-20T13:51:52.775Z,2.90
2018-06-20T13:54:21.073Z,2.90
2018-06-20T13:56:49.244Z,2.80
2018-06-20T13:59:17.433Z,2.70
2018-06-20T14:01:45.771Z,3.93
2018-06-20T14:04:13.921Z,3.33
2018-06-20T14:06:42.146Z,2.83
2018-06-20T14:09:11.163Z,2.90
2018-06-20T14:11:39.679Z,2.50
2018-06-20T14:14:07.846Z,2.93
2018-06-20T14:16:36.110Z,3.13
2018-06-20T14:19:04.427Z,2.57
2018-06-20T14:21:37.595Z,2.20
2018-06-20T14:24:06.747Z,3.20
2018-06-20T14:26:35.308Z,2.53
2018-06-20T14:29:03.475Z,2.43
2018-06-20T14:31:36.856Z,2.50
2018-06-20T14:34:10.356Z,2.70
2018-06-20T14:36:44.687Z,2.60
2018-06-20T14:39:18.925Z,2.70
2018-06-20T14:41:53.456Z,2.30
2018-06-20T14:44:22.716Z,2.30
2018-06-20T14:46:51.906Z,3.10
2018-06-20T14:49:21.220Z,2.40
2018-06-20T14:51:50.562Z,2.60
2018-06-20T14:54:19.660Z,2.80
2018-06-20T14:56:47.928Z,2.87
2018-06-20T14:59:16.433Z,2.60
2018-06-20T15:01:44.828Z,4.00
2018-06-20T15:04:12.995Z,2.43
2018-06-20T15:06:41.169Z,3.03
2018-06-20T15:09:09.632Z,3.03
2018-06-20T15:11:38.518Z,3.27
2018-06-20T15:14:07.059Z,2.60
2018-06-20T15:16:40.819Z,6.07
2018-06-20T15:19:09.244Z,2.33
2018-06-20T15:21:37.411Z,2.67
2018-06-20T15:24:05.563Z,3.00
2018-06-20T15:26:39.196Z,2.93
2018-06-20T15:29:12.823Z,3.20
2018-06-20T15:31:46.372Z,2.83
2018-06-20T15:34:19.890Z,4.90
2018-06-20T15:36:53.547Z,3.43
2018-06-20T15:39:21.915Z,3.50
2018-06-20T15:41:50.228Z,2.93
2018-06-20T15:44:18.499Z,3.00
2018-06-20T15:46:46.752Z,2.90
2018-06-20T15:49:14.917Z,5.90
2018-06-20T15:51:43.117Z,3.10
2018-06-20T15:54:11.323Z,3.20
2018-06-20T15:56:39.549Z,2.60
2018-06-20T15:59:07.818Z,7.97
2018-06-20T16:01:36.604Z,2.90
2018-06-20T16:04:04.892Z,2.60
2018-06-20T16:06:33.401Z,3.60
2018-06-20T16:09:07.216Z,2.67
2018-06-20T16:11:35.515Z,4.33
2018-06-20T16:14:03.811Z,2.87
2018-06-20T16:16:32.160Z,3.03
2018-06-20T16:19:05.906Z,2.87
2018-06-20T16:23:43.143Z,2.93
2018-06-20T16:26:16.780Z,3.00
2018-06-20T16:28:50.635Z,3.40
2018-06-20T16:31:18.912Z,3.80
2018-06-20T16:33:47.267Z,4.53
2018-06-20T16:36:15.453Z,3.23
2018-06-20T16:38:43.720Z,2.27
2018-06-20T16:41:12.115Z,2.83
2018-06-20T16:43:40.362Z,5.77
2018-06-20T16:46:08.986Z,4.20
2018-06-20T16:48:37.264Z,3.40
2018-06-20T16:51:05.984Z,2.83
2018-06-20T16:53:34.645Z,2.67
2018-06-20T16:56:02.997Z,3.70
2018-06-20T16:58:31.256Z,3.87
2018-06-20T17:01:04.862Z,2.80
2018-06-20T17:03:33.379Z,3.10
2018-06-20T17:06:01.759Z,3.23
2018-06-20T17:08:30.300Z,6.67
2018-06-20T17:10:58.611Z,3.03
2018-06-20T17:13:32.318Z,2.90
2018-06-20T17:16:05.899Z,3.77
2018-06-20T17:19:39.426Z,3.13
2018-06-20T17:22:13.127Z,2.77
2018-06-20T17:24:46.738Z,2.73
2018-06-20T17:27:15.180Z,2.63
2018-06-20T17:29:43.401Z,3.03
2018-06-20T17:32:12.075Z,2.67
2018-06-20T17:34:40.228Z,2.77
2018-06-20T17:37:08.768Z,2.73
2018-06-20T17:39:37.165Z,3.30
2018-06-20T17:42:05.703Z,17.60
2018-06-20T17:44:34.060Z,5.37
2018-06-20T17:47:02.658Z,2.83
2018-06-20T17:49:31.451Z,2.60
2018-06-20T17:51:59.893Z,2.93
2018-06-20T17:54:28.488Z,2.50
2018-06-20T17:56:56.667Z,2.30
2018-06-20T17:59:24.920Z,2.47
2018-06-20T18:01:53.277Z,3.53
2018-06-20T18:04:26.856Z,4.80
2018-06-20T18:07:00.524Z,2.43
2018-06-20T18:09:34.071Z,3.97
2018-06-20T18:12:07.558Z,3.70
2018-06-20T18:14:41.281Z,2.60
2018-06-20T18:17:09.762Z,2.63
2018-06-20T18:19:38.371Z,3.10
2018-06-20T18:22:06.696Z,3.00
2018-06-20T18:24:34.929Z,2.90
2018-06-20T18:27:03.128Z,2.80
2018-06-20T18:29:31.631Z,2.57
2018-06-20T18:31:59.960Z,3.43
2018-06-20T18:34:28.506Z,2.80
2018-06-20T18:36:56.672Z,2.50
2018-06-20T18:39:25.022Z,2.93
2018-06-20T18:41:53.486Z,2.60
2018-06-20T18:44:21.731Z,2.40
2018-06-20T18:46:49.881Z,2.63
2018-06-20T18:49:18.165Z,6.63
2018-06-20T18:51:46.344Z,2.80
2018-06-20T18:54:14.643Z,2.23
2018-06-20T18:56:42.813Z,3.03
2018-06-20T18:59:16.387Z,2.50
2018-06-20T19:01:49.997Z,2.50
2018-06-20T19:04:23.790Z,4.30
2018-06-20T19:06:57.485Z,2.97
2018-06-20T19:09:25.919Z,2.90
2018-06-20T19:11:54.211Z,3.43
2018-06-20T19:14:22.436Z,3.93
2018-06-20T19:16:50.581Z,4.30
2018-06-20T19:19:18.886Z,11.07
2018-06-20T19:21:47.060Z,3.50
2018-06-20T19:24:15.269Z,4.33
2018-06-20T19:26:43.453Z,4.30
2018-06-20T19:29:11.628Z,3.27
2018-06-20T19:31:40.014Z,3.53
2018-06-20T19:34:08.236Z,3.50
2018-06-20T19:36:36.658Z,2.93
2018-06-20T19:39:11.159Z,7.70
2018-06-20T19:41:39.628Z,4.23
2018-06-20T19:44:13.377Z,3.37
2018-06-20T19:46:41.656Z,2.90
2018-06-20T19:49:10.236Z,4.60
2018-06-20T19:51:38.552Z,4.10
2018-06-20T19:54:06.952Z,4.27
2018-06-20T19:56:35.135Z,3.87
2018-06-20T19:59:03.304Z,3.87
2018-06-20T20:01:31.999Z,3.70
2018-06-20T20:04:00.161Z,4.23
2018-06-20T20:06:28.329Z,5.17
2018-06-20T20:08:56.912Z,5.67
2018-06-20T20:11:25.292Z,4.03
2018-06-20T20:13:53.495Z,4.30
2018-06-20T20:16:21.738Z,4.60
2018-06-20T20:18:50.351Z,5.70
2018-06-20T20:21:18.523Z,11.93
2018-06-20T20:23:46.748Z,5.20
2018-06-20T20:26:14.961Z,6.90
2018-06-20T20:28:43.107Z,7.40
2018-06-20T20:31:11.362Z,4.30
2018-06-20T20:33:39.509Z,4.10
2018-06-20T20:36:07.772Z,4.50
2018-06-20T20:38:35.963Z,4.90
2018-06-20T20:41:04.110Z,4.17
2018-06-20T20:43:32.317Z,4.50
2018-06-20T20:46:00.928Z,4.90
2018-06-20T20:48:29.157Z,5.17
2018-06-20T20:50:57.325Z,4.37
2018-06-20T20:53:25.616Z,5.50
2018-06-20T20:55:53.808Z,5.30
2018-06-20T20:58:21.976Z,6.23
2018-06-20T21:00:50.645Z,5.17
2018-06-20T21:03:18.932Z,7.23
2018-06-20T21:05:47.448Z,4.90
2018-06-20T21:08:15.616Z,5.00
2018-06-20T21:10:44.063Z,6.00
2018-06-20T21:13:12.252Z,4.50
2018-06-20T21:15:40.879Z,5.00
2018-06-20T21:18:09.028Z,5.97
2018-06-20T21:20:37.308Z,5.47
2018-06-20T21:23:05.437Z,9.60
2018-06-20T21:25:34.247Z,5.77
2018-06-20T21:28:02.903Z,5.43
2018-06-20T21:30:31.128Z,8.20
2018-06-20T21:32:59.411Z,6.87
2018-06-20T21:35:27.754Z,6.07
2018-06-20T21:37:55.935Z,6.37
2018-06-20T21:40:24.143Z,6.77
2018-06-20T21:42:52.304Z,7.13
2018-06-20T21:45:20.464Z,6.50
2018-06-20T21:47:49.087Z,6.87
2018-06-20T21:50:17.232Z,9.97
2018-06-20T21:52:45.416Z,8.90
2018-06-20T21:55:13.603Z,8.90
2018-06-20T21:57:41.809Z,8.23
2018-06-20T22:00:11.587Z,7.30
2018-06-20T22:02:40.268Z,7.13
2018-06-20T22:05:08.411Z,6.30
2018-06-20T22:07:36.968Z,6.30
2018-06-20T22:10:05.487Z,5.87
2018-06-20T22:12:33.992Z,5.17
2018-06-20T22:15:02.353Z,5.83
2018-06-20T22:17:30.980Z,5.53
2018-06-20T22:19:59.131Z,5.40
2018-06-20T22:22:27.324Z,5.27
2018-06-20T22:24:55.581Z,5.80
2018-06-20T22:27:23.931Z,5.63
2018-06-20T22:29:52.079Z,5.97
2018-06-20T22:32:20.223Z,6.47
2018-06-20T22:34:48.456Z,5.40
2018-06-20T22:37:16.672Z,6.93
2018-06-20T22:39:45.166Z,6.17
2018-06-20T22:42:13.396Z,5.23
2018-06-20T22:44:41.750Z,6.17
2018-06-20T22:47:09.963Z,5.93
2018-06-20T22:49:38.115Z,8.33
2018-06-20T22:52:06.320Z,5.93
2018-06-20T22:54:34.476Z,5.57
2018-06-20T22:57:02.790Z,6.13
2018-06-20T22:59:31.095Z,6.63
2018-06-20T23:01:59.530Z,7.37
2018-06-20T23:04:27.920Z,6.57
2018-06-20T23:06:56.074Z,6.80
2018-06-20T23:09:24.221Z,7.00
2018-06-20T23:11:52.557Z,6.50
2018-06-20T23:14:20.863Z,6.90
2018-06-20T23:16:49.000Z,7.67
2018-06-20T23:19:17.160Z,6.03
2018-06-20T23:21:45.315Z,6.80
2018-06-20T23:24:13.636Z,8.20
2018-06-20T23:26:41.796Z,6.87
2018-06-20T23:29:10.048Z,5.93
2018-06-20T23:31:38.343Z,6.67
2018-06-20T23:34:06.496Z,8.00
2018-06-20T23:36:34.691Z,6.63
2018-06-20T23:39:02.932Z,6.30
2018-06-20T23:41:31.075Z,6.37
2018-06-20T23:43:59.233Z,6.03
2018-06-20T23:46:27.818Z,6.10
2018-06-20T23:48:55.966Z,6.37
2018-06-20T23:51:24.169Z,7.03
2018-06-20T23:53:52.815Z,5.27
2018-06-20T23:56:21.210Z,6.17
2018-06-20T23:58:49.492Z,6.63
